• Join FlightAware (Why Join?)
  • Login
  • US Flag 
04:12AM EDT


 

Airport Tracker/Info


-or-


 

Live Flight TrackerFlight Track Log ✈ SKW4965 ✈ 24-May-2013 ✈ KIAH - KAUS

Flight Track Log - Related Links

Times and Time Zones

All times are in EDT time to prevent confusion due to time zone crossing. See the SKW4965 flight status page for this flight to view local times or setup timezone preferences in your user account.

Time Position Orientation Groundspeed Altitude Reporting Facility
EDT Latitude Longitude Course Direction KTS MPH feet Rate Location/Type
09:32AM 29.9413 -95.7053 265° West  Level FlightAware Approximate
09:33AM 29.9321 -95.8304 264° West  Level FlightAware Approximate
09:34AM 29.9207 -95.9553 264° West  Level FlightAware Approximate
09:35AM 29.9225 -96.0801 278° West  Level FlightAware Approximate
09:36AM 29.9333 -96.2048 270° West  Level FlightAware Approximate
09:37AM 29.9391 -96.3301 274° West  Level FlightAware Approximate
09:38AM 29.9464 -96.4554 274° West  Level FlightAware Approximate
09:39AM 29.9584 -96.5793 288° West  Level FlightAware Approximate
09:40AM 29.9925 -96.6986 288° West  Level FlightAware Approximate
09:41AM 30.0324 -96.8149 300° West  Level FlightAware Approximate
09:42AM 30.0562 -96.9354 291° West  Level FlightAware Approximate
09:43AM 30.0954 -97.0527 291° West  Level FlightAware Approximate
09:44AM 30.1301 -97.1719 288° West  Level FlightAware Approximate
09:45AM 30.1667 -97.2856 270° West  Level FlightAware Approximate
09:46AM 30.1667 -97.4115 270° West  Level FlightAware Approximate
09:47AM 30.1833 -97.5337 270° West  Level FlightAware Approximate
09:48AM 30.1833 -97.6596 270° West  Level FlightAware Approximate
09:49AM 30.1833 -97.6667 270° West  Level FlightAware Approximate
09:50AM 30.1945 -97.6699 270° West  Level Estimated
09:51AM 30.1945 -97.6699 270° West  Level Estimated
09:52AM 30.1945 -97.6699 270° West  Level Estimated
09:53AM 30.1945 -97.6699 270° West  Level Estimated
09:54AM 30.1945 -97.6699 270° West  Level Estimated
09:55AM 30.1945 -97.6699 270° West  Level Estimated
09:56AM 30.1945 -97.6699 270° West  Level Estimated
09:57AM 30.1945 -97.6699 270° West  Level Estimated
09:58AM 30.1945 -97.6699 270° West  Level Estimated
09:59AM 30.1945 -97.6699 270° West  Level Estimated
10:00AM 30.1945 -97.6699 270° West  Level Estimated